Time;durP1;ratioP1;P1;durP2;ratioP2;P2;SDS_P1;SDS_P2;PMS_P1;PMS_P2;Temp;Humidity;BMP_temperature;BMP_pressure;BME280_temperature;BME280_humidity;BME280_pressure;Samples;Min_cycle;Max_cycle;Signal;HPM_P1;HPM_P2
2022/07/14 00:00:54;;;;;;;;;;;;;;;25.91;100.00;99322.25;5053610;28;20011;-39
2022/07/14 00:03:19;;;;;;;;;;;;;;;25.66;100.00;99326.22;5053679;28;20551;-39
2022/07/14 00:05:44;;;;;;;;;;;;;;;25.50;100.00;99320.63;5053944;28;20062;-39
2022/07/14 00:08:10;;;;;;;;;;;;;;;25.43;100.00;99330.88;5054786;28;20054;-39
2022/07/14 00:10:35;;;;;;;;;;;;;;;25.58;100.00;99331.34;5053726;28;19964;-39
2022/07/14 00:13:00;;;;;;;;;;;;;;;25.86;100.00;99313.84;5053511;28;20529;-39
2022/07/14 00:15:25;;;;;;;;;;;;;;;25.60;100.00;99324.13;5057371;28;19923;-39
2022/07/14 00:17:51;;;;;;;;;;;;;;;25.54;100.00;99320.22;5057687;28;19920;-39
2022/07/14 00:20:16;;;;;;;;;;;;;;;25.50;100.00;99328.53;5057197;28;19998;-39
2022/07/14 00:22:41;;;;;;;;;;;;;;;25.91;100.00;99319.59;5058744;28;19916;-39
2022/07/14 00:25:07;;;;;;;;;;;;;;;25.64;100.00;99321.09;5057391;28;20362;-39
2022/07/14 00:27:34;;;;;;;;;;;;;;;25.70;100.00;99324.13;5056507;28;20411;-39
2022/07/14 00:29:59;;;;;;;;;;;;;;;25.82;100.00;99308.03;5056714;28;20369;-39
2022/07/14 00:32:24;;;;;;;;;;;;;;;25.81;100.00;99310.81;5058618;28;19969;-40
2022/07/14 00:34:49;;;;;;;;;;;;;;;25.20;100.00;99330.28;5057631;28;19966;-39
2022/07/14 00:37:14;;;;;;;;;;;;;;;25.06;100.00;99326.19;5057742;28;20418;-39
2022/07/14 00:39:55;;;;;;;;;;;;;;;25.37;100.00;99334.91;5056993;28;20457;-41
2022/07/14 00:42:30;;;;;;;;;;;;;;;25.76;100.00;99323.59;5058076;28;20542;-40
2022/07/14 00:44:56;;;;;;;;;;;;;;;25.49;100.00;99329.53;5057384;28;19922;-39
2022/07/14 00:47:21;;;;;;;;;;;;;;;23.74;100.00;99350.38;5057423;28;20392;-39
2022/07/14 00:49:46;;;;;;;;;;;;;;;25.21;100.00;99342.50;5057658;28;19959;-39
2022/07/14 00:52:11;;;;;;;;;;;;;;;25.13;100.00;99337.03;5057670;28;20005;-39
2022/07/14 00:54:36;;;;;;;;;;;;;;;24.97;100.00;99332.25;5057134;28;20003;-39
2022/07/14 00:57:02;;;;;;;;;;;;;;;25.46;100.00;99328.00;5055390;28;20027;-39
2022/07/14 00:59:27;;;;;;;;;;;;;;;25.57;100.00;99313.88;5056502;28;19956;-39
2022/07/14 01:01:52;;;;;;;;;;;;;;;25.84;100.00;99311.38;5057098;28;19921;-39
2022/07/14 01:04:18;;;;;;;;;;;;;;;25.65;100.00;99322.72;5057849;28;20429;-39
2022/07/14 01:06:43;;;;;;;;;;;;;;;25.50;100.00;99320.63;5056387;28;19951;-39
2022/07/14 01:09:08;;;;;;;;;;;;;;;25.43;100.00;99320.34;5056866;28;19927;-39
2022/07/14 01:11:33;;;;;;;;;;;;;;;25.16;100.00;99328.88;5057128;28;19994;-39
2022/07/14 01:14:02;;;;;;;;;;;;;;;24.96;100.00;99323.53;5057152;28;20542;-39
2022/07/14 01:16:27;;;;;;;;;;;;;;;25.33;100.00;99327.41;5055491;28;19923;-39
2022/07/14 01:18:52;;;;;;;;;;;;;;;25.30;100.00;99328.53;5055643;28;19920;-39
2022/07/14 01:21:18;;;;;;;;;;;;;;;25.47;100.00;99313.84;5057231;28;19938;-39
2022/07/14 01:23:43;;;;;;;;;;;;;;;25.55;100.00;99313.16;5056201;28;19974;-39
2022/07/14 01:26:08;;;;;;;;;;;;;;;25.41;100.00;99315.22;5054700;28;19920;-39
2022/07/14 01:28:33;;;;;;;;;;;;;;;24.72;100.00;99317.72;5056608;28;19948;-39
2022/07/14 01:30:59;;;;;;;;;;;;;;;24.90;100.00;99316.16;5055506;28;19927;-39
2022/07/14 01:33:24;;;;;;;;;;;;;;;24.56;100.00;99312.94;5056378;28;19924;-39
2022/07/14 01:35:49;;;;;;;;;;;;;;;24.80;100.00;99315.28;5055576;28;19920;-39
2022/07/14 01:38:16;;;;;;;;;;;;;;;24.66;100.00;99319.09;5055739;28;19912;-39
2022/07/14 01:40:41;;;;;;;;;;;;;;;25.33;100.00;99309.78;5054808;28;19916;-39
2022/07/14 01:43:07;;;;;;;;;;;;;;;25.15;100.00;99314.00;5055463;28;20273;-39
2022/07/14 01:45:34;;;;;;;;;;;;;;;25.03;100.00;99311.47;5054265;28;19978;-39
2022/07/14 01:47:59;;;;;;;;;;;;;;;25.13;100.00;99313.31;5055767;28;19956;-39
2022/07/14 01:50:25;;;;;;;;;;;;;;;25.61;100.00;99305.53;5054768;28;20019;-39
2022/07/14 01:52:50;;;;;;;;;;;;;;;25.27;100.00;99312.94;5055234;28;19920;-39
2022/07/14 01:55:15;;;;;;;;;;;;;;;25.71;100.00;99313.44;5055479;28;19917;-39
2022/07/14 01:57:40;;;;;;;;;;;;;;;25.52;100.00;99311.63;5055692;28;19917;-39
2022/07/14 02:00:06;;;;;;;;;;;;;;;25.50;100.00;99313.56;5054936;28;19929;-39
2022/07/14 02:02:31;;;;;;;;;;;;;;;25.25;100.00;99320.19;5054278;28;19917;-39
2022/07/14 02:04:56;;;;;;;;;;;;;;;25.37;100.00;99308.56;5054885;28;19966;-39
2022/07/14 02:07:22;;;;;;;;;;;;;;;25.51;100.00;99314.41;5054535;28;19951;-39
2022/07/14 02:12:30;;;;;;;;;;;;;;;25.16;100.00;99294.63;5055112;28;19973;-39
2022/07/14 02:14:56;;;;;;;;;;;;;;;24.31;100.00;99303.63;5054047;28;19920;-39
2022/07/14 02:17:21;;;;;;;;;;;;;;;24.21;100.00;99304.41;5055257;28;19938;-39
2022/07/14 02:19:46;;;;;;;;;;;;;;;24.98;100.00;99305.78;5054532;28;20027;-39
2022/07/14 02:22:11;;;;;;;;;;;;;;;25.07;100.00;99290.16;5055139;28;19917;-39
2022/07/14 02:24:37;;;;;;;;;;;;;;;25.18;100.00;99308.47;5055062;28;19923;-39
2022/07/14 02:27:02;;;;;;;;;;;;;;;24.94;100.00;99316.72;5055301;28;19935;-39
2022/07/14 02:29:27;;;;;;;;;;;;;;;25.19;100.00;99315.44;5054362;28;19962;-39
2022/07/14 02:31:52;;;;;;;;;;;;;;;25.11;100.00;99309.97;5054331;28;20029;-39
2022/07/14 02:34:18;;;;;;;;;;;;;;;25.13;100.00;99305.41;5054707;28;20313;-39
2022/07/14 02:36:43;;;;;;;;;;;;;;;25.23;100.00;99306.31;5055037;28;19916;-39
2022/07/14 02:39:09;;;;;;;;;;;;;;;25.34;100.00;99308.84;5052905;28;20162;-39
2022/07/14 02:41:34;;;;;;;;;;;;;;;25.13;100.00;99313.31;5054638;28;20431;-39
2022/07/14 02:43:59;;;;;;;;;;;;;;;25.44;100.00;99314.94;5054236;28;19921;-39
2022/07/14 02:46:26;;;;;;;;;;;;;;;25.45;100.00;99316.63;5054876;28;20445;-39
2022/07/14 02:48:51;;;;;;;;;;;;;;;25.32;100.00;99323.13;5049695;28;19935;-39
2022/07/14 02:51:16;;;;;;;;;;;;;;;24.81;100.00;99322.22;5053865;28;19916;-39
2022/07/14 02:53:41;;;;;;;;;;;;;;;24.87;100.00;99326.97;5053501;28;19922;-39
2022/07/14 02:56:07;;;;;;;;;;;;;;;25.11;100.00;99323.16;5053376;28;19988;-39
2022/07/14 02:58:33;;;;;;;;;;;;;;;24.43;100.00;99323.66;5052098;28;19920;-39
2022/07/14 03:00:58;;;;;;;;;;;;;;;23.90;100.00;99334.22;5052630;28;20589;-39
2022/07/14 03:03:23;;;;;;;;;;;;;;;23.78;100.00;99329.00;5053684;28;19912;-39
2022/07/14 03:05:49;;;;;;;;;;;;;;;24.59;100.00;99329.31;5052262;28;19923;-39
2022/07/14 03:08:14;;;;;;;;;;;;;;;24.49;100.00;99320.53;5053266;28;19916;-39
2022/07/14 03:10:39;;;;;;;;;;;;;;;24.63;100.00;99314.09;5052848;28;20007;-39
2022/07/14 03:13:06;;;;;;;;;;;;;;;25.00;100.00;99310.94;5053168;28;20685;-39
2022/07/14 03:15:32;;;;;;;;;;;;;;;25.10;100.00;99303.03;5053389;28;20369;-39
2022/07/14 03:17:57;;;;;;;;;;;;;;;25.09;100.00;99314.53;5052688;28;19916;-39
2022/07/14 03:20:22;;;;;;;;;;;;;;;24.45;100.00;99320.88;5052867;28;19969;-39
2022/07/14 03:22:47;;;;;;;;;;;;;;;24.24;100.00;99318.25;5053101;28;19967;-39
2022/07/14 03:25:13;;;;;;;;;;;;;;;24.18;100.00;99309.94;5052848;28;20381;-39
2022/07/14 03:27:40;;;;;;;;;;;;;;;24.63;100.00;99306.19;5052726;28;20027;-39
2022/07/14 03:30:05;;;;;;;;;;;;;;;24.60;100.00;99307.28;5052281;28;19939;-39
2022/07/14 03:32:31;;;;;;;;;;;;;;;24.63;100.00;99304.41;5053061;28;19959;-39
2022/07/14 03:34:57;;;;;;;;;;;;;;;24.03;100.00;99311.19;5052427;28;19920;-39
2022/07/14 03:37:22;;;;;;;;;;;;;;;23.75;100.00;99315.28;5053036;28;19916;-39
2022/07/14 03:39:48;;;;;;;;;;;;;;;23.89;100.00;99311.50;5052041;28;19920;-39
2022/07/14 03:42:13;;;;;;;;;;;;;;;23.00;100.00;99318.63;5052234;28;19931;-39
2022/07/14 03:44:38;;;;;;;;;;;;;;;23.50;100.00;99314.59;5053071;28;19923;-39
2022/07/14 03:47:03;;;;;;;;;;;;;;;23.22;100.00;99318.63;5052813;28;19961;-39
2022/07/14 03:49:28;;;;;;;;;;;;;;;23.13;100.00;99321.97;5053284;28;19912;-39
2022/07/14 03:51:54;;;;;;;;;;;;;;;23.43;100.00;99315.22;5057134;28;19917;-39
2022/07/14 03:54:19;;;;;;;;;;;;;;;23.75;100.00;99318.75;5055913;28;19920;-39
2022/07/14 03:56:44;;;;;;;;;;;;;;;23.12;100.00;99328.16;5056077;28;19985;-39
2022/07/14 03:59:10;;;;;;;;;;;;;;;23.78;100.00;99318.47;5055996;28;19994;-39
2022/07/14 04:01:37;;;;;;;;;;;;;;;24.14;100.00;99319.03;5057103;28;20887;-39
2022/07/14 04:04:03;;;;;;;;;;;;;;;23.96;100.00;99315.31;5055308;28;19977;-39
2022/07/14 04:06:28;;;;;;;;;;;;;;;24.41;100.00;99315.88;5055889;28;19916;-39
2022/07/14 04:08:54;;;;;;;;;;;;;;;24.47;100.00;99314.56;5055532;28;19985;-39
2022/07/14 04:11:19;;;;;;;;;;;;;;;24.45;100.00;99319.09;5056559;28;19920;-39
2022/07/14 04:13:45;;;;;;;;;;;;;;;24.69;100.00;99312.75;5056229;28;20825;-39
2022/07/14 04:16:11;;;;;;;;;;;;;;;24.54;100.00;99315.72;5055308;28;19935;-39
2022/07/14 04:18:36;;;;;;;;;;;;;;;24.25;100.00;99315.50;5056060;28;19916;-39
2022/07/14 04:21:01;;;;;;;;;;;;;;;24.13;100.00;99309.50;5054832;28;19924;-39
2022/07/14 04:23:26;;;;;;;;;;;;;;;23.86;100.00;99319.66;5056018;28;19916;-39
2022/07/14 04:25:51;;;;;;;;;;;;;;;23.74;100.00;99319.72;5056344;28;19916;-39
2022/07/14 04:28:17;;;;;;;;;;;;;;;24.44;100.00;99304.25;5056533;28;20666;-39
2022/07/14 04:30:42;;;;;;;;;;;;;;;24.57;100.00;99304.91;5054129;28;20706;-39
2022/07/14 04:33:10;;;;;;;;;;;;;;;24.47;100.00;99290.84;5055744;28;19916;-39
2022/07/14 04:35:36;;;;;;;;;;;;;;;24.65;100.00;99288.44;5055673;28;19916;-40
2022/07/14 04:38:02;;;;;;;;;;;;;;;24.50;100.00;99287.16;5056294;28;19923;-39
2022/07/14 04:40:27;;;;;;;;;;;;;;;24.21;100.00;99279.88;5056235;28;19921;-39
2022/07/14 04:42:52;;;;;;;;;;;;;;;24.41;100.00;99278.22;5056075;28;20776;-39
2022/07/14 04:45:18;;;;;;;;;;;;;;;24.19;100.00;99281.81;5056834;28;20415;-39
2022/07/14 04:47:43;;;;;;;;;;;;;;;24.11;100.00;99290.34;5056101;28;20171;-39
2022/07/14 04:52:52;;;;;;;;;;;;;;;24.66;100.00;99284.88;5056451;28;20032;-39
2022/07/14 04:55:18;;;;;;;;;;;;;;;24.93;100.00;99284.28;5054956;28;20186;-39
2022/07/14 04:57:43;;;;;;;;;;;;;;;24.67;100.00;99289.16;5056469;28;19970;-39
2022/07/14 05:00:09;;;;;;;;;;;;;;;25.22;100.00;99294.09;5055233;28;19928;-39
2022/07/14 05:02:35;;;;;;;;;;;;;;;25.37;100.00;99298.00;5055843;28;19912;-39
2022/07/14 05:05:00;;;;;;;;;;;;;;;24.77;100.00;99310.25;5056212;28;20534;-39
2022/07/14 05:07:25;;;;;;;;;;;;;;;24.96;100.00;99302.44;5055715;28;19916;-39
2022/07/14 05:09:51;;;;;;;;;;;;;;;24.99;100.00;99302.16;5055192;28;19920;-39
2022/07/14 05:12:17;;;;;;;;;;;;;;;25.34;100.00;99295.66;5055913;28;19916;-39
2022/07/14 05:14:43;;;;;;;;;;;;;;;24.83;100.00;99288.66;5056385;28;20266;-39
2022/07/14 05:17:08;;;;;;;;;;;;;;;25.17;100.00;99286.56;5056032;28;19916;-39
2022/07/14 05:19:33;;;;;;;;;;;;;;;25.08;100.00;99297.06;5055275;28;19959;-39
2022/07/14 05:21:58;;;;;;;;;;;;;;;25.22;100.00;99291.44;5055449;28;19912;-39
2022/07/14 05:24:24;;;;;;;;;;;;;;;25.10;100.00;99295.13;5055796;28;19917;-39
2022/07/14 05:26:49;;;;;;;;;;;;;;;24.58;100.00;99300.47;5055365;28;19920;-39
2022/07/14 05:29:14;;;;;;;;;;;;;;;24.39;100.00;99306.47;5055617;28;19916;-39
2022/07/14 05:31:39;;;;;;;;;;;;;;;23.99;100.00;99304.53;5055446;28;20035;-39
2022/07/14 05:34:06;;;;;;;;;;;;;;;24.14;100.00;99298.00;5054023;28;19960;-39
2022/07/14 05:36:31;;;;;;;;;;;;;;;24.50;100.00;99293.25;5055131;28;19916;-39
2022/07/14 05:38:56;;;;;;;;;;;;;;;24.13;100.00;99298.97;5055186;28;20010;-39
2022/07/14 05:41:22;;;;;;;;;;;;;;;24.51;100.00;99297.53;5055983;28;19947;-39
2022/07/14 05:43:47;;;;;;;;;;;;;;;24.19;100.00;99297.59;5054607;28;20309;-39
2022/07/14 05:46:13;;;;;;;;;;;;;;;23.49;100.00;99306.84;5054796;28;20358;-39
2022/07/14 05:48:38;;;;;;;;;;;;;;;23.69;100.00;99300.78;5055045;28;20484;-39
2022/07/14 05:51:07;;;;;;;;;;;;;;;23.43;100.00;99312.59;5054520;28;19917;-39
2022/07/14 05:53:33;;;;;;;;;;;;;;;24.10;100.00;99299.19;5055617;28;19916;-39
2022/07/14 05:55:58;;;;;;;;;;;;;;;24.16;100.00;99300.50;5054580;28;19967;-39
2022/07/14 05:58:23;;;;;;;;;;;;;;;24.67;100.00;99283.91;5055009;28;19924;-39
2022/07/14 06:00:49;;;;;;;;;;;;;;;25.03;100.00;99279.03;5054190;28;19967;-39
2022/07/14 06:03:14;;;;;;;;;;;;;;;25.12;100.00;99280.84;5055365;28;19924;-39
2022/07/14 06:05:39;;;;;;;;;;;;;;;25.27;100.00;99285.75;5053229;28;19920;-39
2022/07/14 06:08:04;;;;;;;;;;;;;;;25.28;100.00;99292.72;5054536;28;19928;-39
2022/07/14 06:10:29;;;;;;;;;;;;;;;25.19;100.00;99294.38;5054773;28;19921;-39
2022/07/14 06:12:55;;;;;;;;;;;;;;;24.98;100.00;99286.50;5054037;28;20054;-39
2022/07/14 06:15:20;;;;;;;;;;;;;;;25.20;100.00;99285.47;5054693;28;19916;-39
2022/07/14 06:17:45;;;;;;;;;;;;;;;24.66;100.00;99307.75;5055146;28;19917;-39
2022/07/14 06:20:11;;;;;;;;;;;;;;;24.96;100.00;99299.81;5053513;28;20369;-39
2022/07/14 06:22:36;;;;;;;;;;;;;;;25.57;100.00;99303.31;5054140;28;20077;-39
2022/07/14 06:25:01;;;;;;;;;;;;;;;25.19;100.00;99294.38;5054445;28;19917;-39
2022/07/14 06:27:27;;;;;;;;;;;;;;;24.21;100.00;99306.19;5054164;28;19916;-39
2022/07/14 06:29:52;;;;;;;;;;;;;;;24.78;100.00;99307.50;5053141;28;19931;-39
2022/07/14 06:32:18;;;;;;;;;;;;;;;25.19;100.00;99304.91;5052767;28;19923;-39
2022/07/14 06:34:45;;;;;;;;;;;;;;;24.85;100.00;99305.19;5053814;28;19923;-39
2022/07/14 06:37:10;;;;;;;;;;;;;;;24.20;100.00;99308.00;5054655;28;19920;-39
2022/07/14 06:39:36;;;;;;;;;;;;;;;24.83;100.00;99307.94;5053490;28;19927;-39
2022/07/14 06:42:03;;;;;;;;;;;;;;;24.18;100.00;99304.66;5053039;28;19916;-39
2022/07/14 06:44:28;;;;;;;;;;;;;;;24.18;100.00;99309.94;5053631;28;19939;-39
2022/07/14 06:46:54;;;;;;;;;;;;;;;24.24;100.00;99299.84;5053303;28;19916;-39
2022/07/14 06:49:19;;;;;;;;;;;;;;;24.70;100.00;99298.59;5053231;28;19971;-39
2022/07/14 06:51:44;;;;;;;;;;;;;;;24.18;100.00;99304.66;5053555;28;19916;-39
2022/07/14 06:54:10;;;;;;;;;;;;;;;24.83;100.00;99299.19;5052683;28;19921;-39
2022/07/14 06:56:35;;;;;;;;;;;;;;;25.12;100.00;99293.22;5053823;28;19916;-39
2022/07/14 06:59:00;;;;;;;;;;;;;;;25.20;100.00;99296.00;5053134;28;20376;-39
2022/07/14 07:01:25;;;;;;;;;;;;;;;25.05;100.00;99300.81;5052742;28;20875;-39
2022/07/14 07:03:50;;;;;;;;;;;;;;;26.00;100.00;99287.09;5053060;28;20766;-39
2022/07/14 07:09:00;;;;;;;;;;;;;;;23.23;100.00;99328.16;5052122;28;20585;-39
2022/07/14 07:11:25;;;;;;;;;;;;;;;24.24;100.00;99323.53;5053551;28;19921;-39
2022/07/14 07:13:50;;;;;;;;;;;;;;;24.27;100.00;99310.97;5053161;28;19947;-39
2022/07/14 07:16:15;;;;;;;;;;;;;;;24.48;100.00;99305.72;5053617;28;19962;-39
2022/07/14 07:18:40;;;;;;;;;;;;;;;24.47;100.00;99304.03;5053367;28;19982;-39
2022/07/14 07:21:06;;;;;;;;;;;;;;;23.69;100.00;99308.69;5053245;28;19927;-39
2022/07/14 07:23:31;;;;;;;;;;;;;;;24.44;100.00;99301.63;5053124;28;19916;-39
2022/07/14 07:25:56;;;;;;;;;;;;;;;24.68;100.00;99300.53;5052480;28;20428;-39
2022/07/14 07:28:22;;;;;;;;;;;;;;;24.86;100.00;99298.09;5053028;28;19924;-39
2022/07/14 07:30:47;;;;;;;;;;;;;;;24.69;100.00;99294.31;5052954;28;19916;-39
2022/07/14 07:33:12;;;;;;;;;;;;;;;24.57;100.00;99304.09;5052887;28;19927;-39
2022/07/14 07:35:38;;;;;;;;;;;;;;;25.27;100.00;99302.41;5052264;28;19956;-39
2022/07/14 07:38:04;;;;;;;;;;;;;;;24.76;100.00;99300.72;5051434;28;20966;-39
2022/07/14 07:40:29;;;;;;;;;;;;;;;25.60;100.00;99289.84;5052738;28;19978;-39
2022/07/14 07:42:54;;;;;;;;;;;;;;;25.65;100.00;99299.00;5053497;28;19917;-39
2022/07/14 07:45:19;;;;;;;;;;;;;;;26.36;100.00;99289.91;5053441;28;20312;-39
2022/07/14 07:47:45;;;;;;;;;;;;;;;25.73;100.00;99298.31;5052889;28;20320;-39
2022/07/14 07:50:10;;;;;;;;;;;;;;;26.09;100.00;99293.31;5052033;28;19943;-39
2022/07/14 07:52:36;;;;;;;;;;;;;;;25.48;100.00;99294.41;5052781;28;19971;-39
2022/07/14 07:55:01;;;;;;;;;;;;;;;25.93;100.00;99293.06;5053201;28;20030;-39
2022/07/14 07:57:26;;;;;;;;;;;;;;;25.26;100.00;99306.03;5053584;28;19921;-39
2022/07/14 07:59:51;;;;;;;;;;;;;;;25.49;100.00;99301.34;5051730;28;20379;-39
2022/07/14 08:02:17;;;;;;;;;;;;;;;24.68;100.00;99317.19;5053081;28;20730;-39
2022/07/14 08:04:42;;;;;;;;;;;;;;;24.69;100.00;99299.56;5051450;28;19916;-39
2022/07/14 08:07:08;;;;;;;;;;;;;;;25.54;100.00;99308.84;5052833;28;19920;-39
2022/07/14 08:09:33;;;;;;;;;;;;;;;26.80;99.57;99295.53;5052650;28;19916;-39
2022/07/14 08:11:58;;;;;;;;;;;;;;;27.47;95.13;99288.19;5052791;28;19961;-39
2022/07/14 08:17:08;;;;;;;;;;;;;;;26.21;98.54;99281.63;5052390;28;19923;-39
2022/07/14 08:19:33;;;;;;;;;;;;;;;25.64;100.00;99283.31;5052301;28;19996;-39
2022/07/14 08:21:58;;;;;;;;;;;;;;;26.55;99.92;99269.72;5052359;28;20023;-39
2022/07/14 08:24:24;;;;;;;;;;;;;;;26.80;96.48;99262.94;5053374;28;19932;-39
2022/07/14 08:26:50;;;;;;;;;;;;;;;25.54;100.00;99283.31;5051575;28;20933;-39
2022/07/14 08:29:16;;;;;;;;;;;;;;;26.75;96.78;99265.22;5052191;28;19916;-39
2022/07/14 08:31:41;;;;;;;;;;;;;;;26.69;96.75;99264.81;5052160;28;19986;-39
2022/07/14 08:34:06;;;;;;;;;;;;;;;26.16;99.48;99270.69;5052778;28;19940;-40
2022/07/14 08:36:32;;;;;;;;;;;;;;;26.80;95.22;99257.66;5054250;28;19916;-39
2022/07/14 08:38:57;;;;;;;;;;;;;;;26.44;96.43;99254.88;5055513;28;19943;-39
2022/07/14 08:41:22;;;;;;;;;;;;;;;25.90;100.00;99261.69;5056275;28;19923;-39
2022/07/14 08:43:48;;;;;;;;;;;;;;;26.80;95.10;99245.31;5055877;28;19917;-39
2022/07/14 08:46:14;;;;;;;;;;;;;;;25.97;94.15;99249.59;5054638;28;19969;-39
2022/07/14 08:48:39;;;;;;;;;;;;;;;26.94;90.28;99243.97;5054279;28;19940;-39
2022/07/14 08:51:04;;;;;;;;;;;;;;;28.14;89.66;99229.53;5055301;28;19951;-39
2022/07/14 08:53:30;;;;;;;;;;;;;;;27.09;89.98;99239.00;5055345;28;19935;-39
2022/07/14 08:55:55;;;;;;;;;;;;;;;24.61;96.99;99243.13;5055491;28;20330;-39
2022/07/14 08:58:20;;;;;;;;;;;;;;;25.48;100.00;99236.41;5055565;28;20334;-39
2022/07/14 09:00:45;;;;;;;;;;;;;;;27.36;91.58;99235.50;5056219;28;19920;-39
2022/07/14 09:03:11;;;;;;;;;;;;;;;27.92;86.49;99226.41;5056691;28;20373;-39
2022/07/14 09:05:41;;;;;;;;;;;;;;;26.85;89.75;99236.94;5054231;28;19916;-39
2022/07/14 09:08:06;;;;;;;;;;;;;;;29.38;79.55;99227.22;5057028;28;19917;-39
2022/07/14 09:10:31;;;;;;;;;;;;;;;27.89;86.89;99232.00;5056469;28;19927;-39
2022/07/14 09:13:13;;;;;;;;;;;;;;;27.31;88.97;99235.97;5056237;28;20297;-39
2022/07/14 09:15:44;;;;;;;;;;;;;;;26.16;87.64;99231.06;5056718;28;20486;-39
2022/07/14 09:18:12;;;;;;;;;;;;;;;28.11;80.55;99219.25;5056351;28;19963;-40
2022/07/14 09:20:37;;;;;;;;;;;;;;;28.97;70.92;99216.50;5055938;28;19924;-39
2022/07/14 09:23:03;;;;;;;;;;;;;;;24.86;88.49;99235.72;5057444;28;19970;-40
2022/07/14 09:25:29;;;;;;;;;;;;;;;27.84;77.98;99201.72;5056764;28;19921;-39
2022/07/14 09:27:55;;;;;;;;;;;;;;;28.29;72.16;99208.59;5056961;28;19917;-39
2022/07/14 09:30:20;;;;;;;;;;;;;;;28.34;72.21;99211.59;5056439;28;19921;-39
2022/07/14 09:32:59;;;;;;;;;;;;;;;28.99;73.06;99205.75;5056026;28;20569;-39
2022/07/14 09:35:25;;;;;;;;;;;;;;;28.68;66.64;99205.50;5056395;28;19920;-39
2022/07/14 09:37:50;;;;;;;;;;;;;;;27.72;67.52;99203.75;5056429;28;20015;-39
2022/07/14 09:40:22;;;;;;;;;;;;;;;28.52;74.90;99211.56;5056252;28;19920;-39
2022/07/14 09:42:47;;;;;;;;;;;;;;;28.94;62.31;99200.09;5055940;28;19923;-39
2022/07/14 09:45:14;;;;;;;;;;;;;;;29.49;63.83;99199.53;5056683;28;19916;-39
2022/07/14 09:47:56;;;;;;;;;;;;;;;30.16;59.02;99195.81;5054793;28;20499;-39
2022/07/14 09:50:40;;;;;;;;;;;;;;;29.52;61.26;99199.19;5056139;28;20823;-39
2022/07/14 09:53:09;;;;;;;;;;;;;;;28.27;71.90;99207.94;5056262;28;19917;-39
2022/07/14 09:55:36;;;;;;;;;;;;;;;28.26;71.29;99208.91;5054450;28;19923;-39
2022/07/14 09:58:04;;;;;;;;;;;;;;;29.81;65.05;99189.94;5055464;28;20292;-39
2022/07/14 10:00:29;;;;;;;;;;;;;;;28.74;66.46;99200.38;5054051;28;20256;-39
2022/07/14 10:02:54;;;;;;;;;;;;;;;29.84;63.61;99192.25;5055819;28;19927;-39
2022/07/14 10:05:20;;;;;;;;;;;;;;;29.52;60.19;99193.88;5054740;28;20537;-39
2022/07/14 10:07:45;;;;;;;;;;;;;;;29.12;62.41;99186.72;5055736;28;20772;-39
2022/07/14 10:10:12;;;;;;;;;;;;;;;28.70;58.32;99193.72;5053159;28;20228;-40
2022/07/14 10:12:38;;;;;;;;;;;;;;;29.83;53.20;99185.25;5056175;28;19956;-39
2022/07/14 10:15:05;;;;;;;;;;;;;;;30.38;52.48;99194.28;5055816;28;20397;-39
2022/07/14 10:17:30;;;;;;;;;;;;;;;30.38;48.39;99183.63;5055476;28;19965;-39
2022/07/14 10:19:56;;;;;;;;;;;;;;;31.00;51.23;99194.34;5055614;28;19925;-40
2022/07/14 10:22:21;;;;;;;;;;;;;;;30.46;45.69;99186.28;5055845;28;20189;-40
2022/07/14 10:24:47;;;;;;;;;;;;;;;29.49;53.78;99194.22;5055480;28;20029;-40
2022/07/14 10:27:12;;;;;;;;;;;;;;;26.81;58.70;99206.50;5054832;28;19916;-39
2022/07/14 10:29:38;;;;;;;;;;;;;;;26.19;62.83;99193.81;5052841;28;19916;-39
2022/07/14 10:32:18;;;;;;;;;;;;;;;27.69;59.37;99189.00;5054295;28;19952;-40
2022/07/14 10:34:46;;;;;;;;;;;;;;;27.65;64.56;99192.94;5055140;28;19938;-39
2022/07/14 10:37:14;;;;;;;;;;;;;;;28.10;62.25;99194.59;5054076;28;20456;-39
2022/07/14 10:39:46;;;;;;;;;;;;;;;29.53;55.68;99189.41;5037242;28;19927;-39
2022/07/14 10:42:15;;;;;;;;;;;;;;;30.84;50.53;99189.94;5055267;28;19916;-40
2022/07/14 10:44:43;;;;;;;;;;;;;;;30.29;52.42;99185.53;5052995;28;19997;-40
2022/07/14 10:47:09;;;;;;;;;;;;;;;28.63;55.76;99192.72;5054116;28;19917;-39
2022/07/14 10:49:53;;;;;;;;;;;;;;;31.10;51.98;99180.78;5054832;28;19962;-39
2022/07/14 10:52:28;;;;;;;;;;;;;;;29.92;44.21;99175.44;5055544;28;20007;-40
2022/07/14 10:55:12;;;;;;;;;;;;;;;29.09;52.90;99193.19;5053277;28;19926;-40
2022/07/14 10:57:37;;;;;;;;;;;;;;;29.96;47.29;99169.63;5054860;28;19969;-39
2022/07/14 11:00:03;;;;;;;;;;;;;;;28.98;49.94;99172.25;5053786;28;20515;-39
2022/07/14 11:02:31;;;;;;;;;;;;;;;28.59;48.30;99175.47;5054016;28;19916;-39
2022/07/14 11:05:12;;;;;;;;;;;;;;;28.68;49.35;99185.09;5055264;28;20897;-40
2022/07/14 11:07:52;;;;;;;;;;;;;;;29.93;45.32;99172.63;5055465;28;19916;-39
2022/07/14 11:10:20;;;;;;;;;;;;;;;29.69;45.75;99172.66;5054756;28;20819;-40
2022/07/14 11:13:06;;;;;;;;;;;;;;;31.59;43.33;99169.81;5054892;28;20538;-40
2022/07/14 11:15:39;;;;;;;;;;;;;;;32.11;39.54;99170.78;5055349;28;20791;-39
2022/07/14 11:18:13;;;;;;;;;;;;;;;30.94;38.48;99170.28;5052828;28;19924;-39
2022/07/14 11:20:49;;;;;;;;;;;;;;;28.00;41.05;99179.81;5053169;28;19931;-40
2022/07/14 11:23:15;;;;;;;;;;;;;;;29.13;39.66;99167.19;5054181;28;20985;-40
2022/07/14 11:25:40;;;;;;;;;;;;;;;30.95;38.33;99150.63;5054641;28;19916;-40
2022/07/14 11:28:06;;;;;;;;;;;;;;;28.00;43.30;99174.50;5053668;28;19916;-40
2022/07/14 11:30:31;;;;;;;;;;;;;;;28.10;50.01;99177.88;5052308;28;19916;-40
2022/07/14 11:33:09;;;;;;;;;;;;;;;30.55;44.45;99163.16;5053908;28;19930;-40
2022/07/14 11:38:34;;;;;;;;;;;;;;;29.80;41.37;99167.00;5054836;28;19923;-40
2022/07/14 11:41:02;;;;;;;;;;;;;;;28.36;43.67;99169.91;5053984;28;19927;-40
2022/07/14 11:43:30;;;;;;;;;;;;;;;29.51;40.92;99165.69;5055233;28;19916;-40
2022/07/14 11:45:56;;;;;;;;;;;;;;;30.50;40.03;99152.22;5055394;28;19951;-40
2022/07/14 11:48:22;;;;;;;;;;;;;;;29.78;38.31;99150.44;5054643;28;19923;-40
2022/07/14 11:50:48;;;;;;;;;;;;;;;28.32;40.47;99164.06;5054600;28;19960;-40
2022/07/14 11:53:13;;;;;;;;;;;;;;;29.81;42.06;99163.38;5054864;28;20653;-40
2022/07/14 11:55:38;;;;;;;;;;;;;;;29.39;40.25;99157.22;5052948;28;21297;-41
2022/07/14 11:58:04;;;;;;;;;;;;;;;29.92;40.57;99162.19;5054842;28;20261;-40
2022/07/14 12:00:29;;;;;;;;;;;;;;;28.49;41.18;99174.78;5054153;28;19999;-40
2022/07/14 12:02:55;;;;;;;;;;;;;;;29.69;44.62;99160.22;5054158;28;19970;-40
2022/07/14 12:05:21;;;;;;;;;;;;;;;27.21;43.65;99162.97;5053681;28;19920;-40
2022/07/14 12:07:47;;;;;;;;;;;;;;;29.13;43.50;99151.28;5054798;28;19923;-40
2022/07/14 12:10:12;;;;;;;;;;;;;;;28.75;39.99;99156.97;5054878;28;19952;-40
2022/07/14 12:12:41;;;;;;;;;;;;;;;31.27;38.91;99147.75;5058930;28;20085;-39
2022/07/14 12:15:07;;;;;;;;;;;;;;;31.56;36.96;99154.16;5058152;28;19983;-40
2022/07/14 12:17:34;;;;;;;;;;;;;;;28.16;38.95;99166.66;5058182;28;20301;-40
2022/07/14 12:20:00;;;;;;;;;;;;;;;29.08;38.28;99157.06;5055867;28;19920;-40
2022/07/14 12:22:25;;;;;;;;;;;;;;;31.29;37.42;99152.88;5058831;28;20332;-40
2022/07/14 12:24:50;;;;;;;;;;;;;;;31.08;36.46;99153.53;5059146;28;19952;-40
2022/07/14 12:27:15;;;;;;;;;;;;;;;30.94;35.96;99163.13;5058707;28;19959;-40
2022/07/14 12:29:49;;;;;;;;;;;;;;;31.27;37.12;99150.41;5057664;28;19966;-40
2022/07/14 12:32:15;;;;;;;;;;;;;;;30.84;35.87;99142.06;5057672;28;19924;-40
2022/07/14 12:34:40;;;;;;;;;;;;;;;31.18;35.90;99148.81;5058112;28;19920;-40
2022/07/14 12:37:06;;;;;;;;;;;;;;;30.47;38.48;99139.25;5057907;28;20369;-40
2022/07/14 12:39:31;;;;;;;;;;;;;;;30.39;37.65;99140.97;5057349;28;20281;-40
2022/07/14 12:41:58;;;;;;;;;;;;;;;29.80;36.89;99128.00;5057693;28;20073;-40
2022/07/14 12:44:24;;;;;;;;;;;;;;;31.10;38.44;99140.91;5056367;28;19959;-40
2022/07/14 12:47:05;;;;;;;;;;;;;;;30.67;39.76;99135.16;5056803;28;20067;-40
2022/07/14 12:49:31;;;;;;;;;;;;;;;30.82;37.84;99137.91;5057516;28;19963;-40